sensor_id;sensor_type;location;lat;lon;timestamp;P1;durP1;ratioP1;P2;durP2;ratioP2
8104;SDS011;4095;48.942;9.104;2022-08-03T00:01:42;4.43;;;3.07;;
8104;SDS011;4095;48.942;9.104;2022-08-03T00:04:08;3.20;;;2.70;;
8104;SDS011;4095;48.942;9.104;2022-08-03T00:06:35;3.40;;;2.90;;
8104;SDS011;4095;48.942;9.104;2022-08-03T00:09:01;4.00;;;2.67;;
8104;SDS011;4095;48.942;9.104;2022-08-03T00:11:27;5.00;;;2.87;;
8104;SDS011;4095;48.942;9.104;2022-08-03T00:13:53;3.73;;;2.93;;
8104;SDS011;4095;48.942;9.104;2022-08-03T00:16:18;3.50;;;2.90;;
8104;SDS011;4095;48.942;9.104;2022-08-03T00:18:44;4.40;;;2.77;;
8104;SDS011;4095;48.942;9.104;2022-08-03T00:21:10;4.17;;;2.90;;
8104;SDS011;4095;48.942;9.104;2022-08-03T00:23:36;4.17;;;2.63;;
8104;SDS011;4095;48.942;9.104;2022-08-03T00:26:02;3.80;;;2.73;;
8104;SDS011;4095;48.942;9.104;2022-08-03T00:28:28;2.70;;;2.50;;
8104;SDS011;4095;48.942;9.104;2022-08-03T00:30:54;4.80;;;2.70;;
8104;SDS011;4095;48.942;9.104;2022-08-03T00:33:20;4.97;;;2.87;;
8104;SDS011;4095;48.942;9.104;2022-08-03T00:35:46;4.00;;;2.97;;
8104;SDS011;4095;48.942;9.104;2022-08-03T00:38:12;3.50;;;2.63;;
8104;SDS011;4095;48.942;9.104;2022-08-03T00:40:37;3.17;;;2.87;;
8104;SDS011;4095;48.942;9.104;2022-08-03T00:43:04;3.43;;;3.10;;
8104;SDS011;4095;48.942;9.104;2022-08-03T00:45:34;3.13;;;2.80;;
8104;SDS011;4095;48.942;9.104;2022-08-03T00:48:02;3.90;;;2.90;;
8104;SDS011;4095;48.942;9.104;2022-08-03T00:50:30;4.10;;;2.90;;
8104;SDS011;4095;48.942;9.104;2022-08-03T00:53:01;4.30;;;3.00;;
8104;SDS011;4095;48.942;9.104;2022-08-03T00:55:29;3.40;;;3.10;;
8104;SDS011;4095;48.942;9.104;2022-08-03T00:57:54;4.43;;;3.30;;
8104;SDS011;4095;48.942;9.104;2022-08-03T01:00:22;3.43;;;3.13;;
8104;SDS011;4095;48.942;9.104;2022-08-03T01:02:50;5.20;;;3.30;;
8104;SDS011;4095;48.942;9.104;2022-08-03T01:05:16;3.73;;;3.00;;
8104;SDS011;4095;48.942;9.104;2022-08-03T01:13:16;3.67;;;2.90;;
8104;SDS011;4095;48.942;9.104;2022-08-03T01:15:49;3.27;;;3.07;;
8104;SDS011;4095;48.942;9.104;2022-08-03T01:21:01;3.33;;;3.03;;
8104;SDS011;4095;48.942;9.104;2022-08-03T01:32:05;4.37;;;3.13;;
8104;SDS011;4095;48.942;9.104;2022-08-03T01:34:35;3.73;;;3.10;;
8104;SDS011;4095;48.942;9.104;2022-08-03T01:37:07;4.67;;;3.40;;
8104;SDS011;4095;48.942;9.104;2022-08-03T01:39:34;3.53;;;3.23;;
8104;SDS011;4095;48.942;9.104;2022-08-03T01:42:03;5.03;;;3.20;;
8104;SDS011;4095;48.942;9.104;2022-08-03T01:44:33;6.00;;;3.70;;
8104;SDS011;4095;48.942;9.104;2022-08-03T01:47:02;4.73;;;3.53;;
8104;SDS011;4095;48.942;9.104;2022-08-03T01:49:31;5.13;;;3.57;;
8104;SDS011;4095;48.942;9.104;2022-08-03T01:52:01;4.67;;;3.67;;
8104;SDS011;4095;48.942;9.104;2022-08-03T01:54:29;3.90;;;3.40;;
8104;SDS011;4095;48.942;9.104;2022-08-03T01:56:57;4.63;;;3.30;;
8104;SDS011;4095;48.942;9.104;2022-08-03T01:59:24;4.47;;;3.60;;
8104;SDS011;4095;48.942;9.104;2022-08-03T02:01:50;4.57;;;3.80;;
8104;SDS011;4095;48.942;9.104;2022-08-03T02:04:18;5.03;;;3.70;;
8104;SDS011;4095;48.942;9.104;2022-08-03T02:06:46;3.60;;;3.30;;
8104;SDS011;4095;48.942;9.104;2022-08-03T02:09:13;5.03;;;4.00;;
8104;SDS011;4095;48.942;9.104;2022-08-03T02:11:40;5.37;;;3.73;;
8104;SDS011;4095;48.942;9.104;2022-08-03T02:14:07;4.10;;;3.70;;
8104;SDS011;4095;48.942;9.104;2022-08-03T02:16:34;5.63;;;3.93;;
8104;SDS011;4095;48.942;9.104;2022-08-03T02:19:02;4.37;;;3.63;;
8104;SDS011;4095;48.942;9.104;2022-08-03T02:21:31;4.10;;;3.30;;
8104;SDS011;4095;48.942;9.104;2022-08-03T02:24:00;3.60;;;3.30;;
8104;SDS011;4095;48.942;9.104;2022-08-03T02:26:28;4.57;;;3.77;;
8104;SDS011;4095;48.942;9.104;2022-08-03T02:28:55;6.23;;;4.03;;
8104;SDS011;4095;48.942;9.104;2022-08-03T02:31:23;5.73;;;3.90;;
8104;SDS011;4095;48.942;9.104;2022-08-03T02:33:54;4.10;;;3.67;;
8104;SDS011;4095;48.942;9.104;2022-08-03T02:36:24;5.57;;;3.80;;
8104;SDS011;4095;48.942;9.104;2022-08-03T02:38:54;3.80;;;3.50;;
8104;SDS011;4095;48.942;9.104;2022-08-03T02:41:23;4.13;;;3.40;;
8104;SDS011;4095;48.942;9.104;2022-08-03T02:43:54;5.53;;;3.83;;
8104;SDS011;4095;48.942;9.104;2022-08-03T02:46:23;4.70;;;3.70;;
8104;SDS011;4095;48.942;9.104;2022-08-03T02:48:52;4.20;;;3.80;;
8104;SDS011;4095;48.942;9.104;2022-08-03T02:51:19;3.90;;;3.33;;
8104;SDS011;4095;48.942;9.104;2022-08-03T02:53:47;6.47;;;3.73;;
8104;SDS011;4095;48.942;9.104;2022-08-03T02:56:13;4.30;;;3.60;;
8104;SDS011;4095;48.942;9.104;2022-08-03T02:58:41;4.13;;;3.73;;
8104;SDS011;4095;48.942;9.104;2022-08-03T03:01:09;4.77;;;3.70;;
8104;SDS011;4095;48.942;9.104;2022-08-03T03:03:35;4.53;;;3.67;;
8104;SDS011;4095;48.942;9.104;2022-08-03T03:06:04;4.30;;;3.90;;
8104;SDS011;4095;48.942;9.104;2022-08-03T03:08:31;4.20;;;3.70;;
8104;SDS011;4095;48.942;9.104;2022-08-03T03:10:57;4.87;;;3.63;;
8104;SDS011;4095;48.942;9.104;2022-08-03T03:13:25;4.93;;;3.97;;
8104;SDS011;4095;48.942;9.104;2022-08-03T03:15:53;5.93;;;3.70;;
8104;SDS011;4095;48.942;9.104;2022-08-03T03:18:20;4.77;;;3.83;;
8104;SDS011;4095;48.942;9.104;2022-08-03T03:20:46;5.53;;;4.20;;
8104;SDS011;4095;48.942;9.104;2022-08-03T03:23:14;4.90;;;3.90;;
8104;SDS011;4095;48.942;9.104;2022-08-03T03:25:40;5.03;;;4.27;;
8104;SDS011;4095;48.942;9.104;2022-08-03T03:28:08;5.40;;;3.60;;
8104;SDS011;4095;48.942;9.104;2022-08-03T03:30:34;4.47;;;3.90;;
8104;SDS011;4095;48.942;9.104;2022-08-03T03:33:00;5.43;;;3.80;;
8104;SDS011;4095;48.942;9.104;2022-08-03T03:35:26;4.23;;;3.83;;
8104;SDS011;4095;48.942;9.104;2022-08-03T03:37:52;4.43;;;3.87;;
8104;SDS011;4095;48.942;9.104;2022-08-03T03:40:18;4.97;;;4.10;;
8104;SDS011;4095;48.942;9.104;2022-08-03T03:42:44;5.23;;;4.30;;
8104;SDS011;4095;48.942;9.104;2022-08-03T03:45:10;4.50;;;4.10;;
8104;SDS011;4095;48.942;9.104;2022-08-03T03:47:37;4.57;;;4.10;;
8104;SDS011;4095;48.942;9.104;2022-08-03T03:50:03;5.43;;;4.53;;
8104;SDS011;4095;48.942;9.104;2022-08-03T03:52:30;5.00;;;4.57;;
8104;SDS011;4095;48.942;9.104;2022-08-03T03:54:56;5.67;;;4.43;;
8104;SDS011;4095;48.942;9.104;2022-08-03T03:57:22;4.83;;;3.80;;
8104;SDS011;4095;48.942;9.104;2022-08-03T03:59:47;6.10;;;4.60;;
8104;SDS011;4095;48.942;9.104;2022-08-03T04:02:13;4.70;;;4.30;;
8104;SDS011;4095;48.942;9.104;2022-08-03T04:04:38;5.23;;;4.30;;
8104;SDS011;4095;48.942;9.104;2022-08-03T04:07:48;5.70;;;4.30;;
8104;SDS011;4095;48.942;9.104;2022-08-03T04:10:55;4.80;;;4.40;;
8104;SDS011;4095;48.942;9.104;2022-08-03T04:13:41;5.47;;;4.47;;
8104;SDS011;4095;48.942;9.104;2022-08-03T04:16:24;4.93;;;4.17;;
8104;SDS011;4095;48.942;9.104;2022-08-03T04:18:54;4.80;;;3.97;;
8104;SDS011;4095;48.942;9.104;2022-08-03T04:21:22;6.03;;;4.20;;
8104;SDS011;4095;48.942;9.104;2022-08-03T04:23:50;5.83;;;4.30;;
8104;SDS011;4095;48.942;9.104;2022-08-03T04:26:19;4.77;;;4.30;;
8104;SDS011;4095;48.942;9.104;2022-08-03T04:28:46;6.40;;;4.90;;
8104;SDS011;4095;48.942;9.104;2022-08-03T04:31:15;6.40;;;4.43;;
8104;SDS011;4095;48.942;9.104;2022-08-03T04:33:44;5.23;;;4.17;;
8104;SDS011;4095;48.942;9.104;2022-08-03T04:36:11;6.47;;;4.47;;
8104;SDS011;4095;48.942;9.104;2022-08-03T04:38:51;4.73;;;4.33;;
8104;SDS011;4095;48.942;9.104;2022-08-03T04:41:29;4.80;;;4.30;;
8104;SDS011;4095;48.942;9.104;2022-08-03T04:43:57;5.67;;;4.50;;
8104;SDS011;4095;48.942;9.104;2022-08-03T04:46:25;6.60;;;4.77;;
8104;SDS011;4095;48.942;9.104;2022-08-03T04:48:54;7.17;;;5.00;;
8104;SDS011;4095;48.942;9.104;2022-08-03T04:51:20;6.40;;;4.50;;
8104;SDS011;4095;48.942;9.104;2022-08-03T04:53:46;7.80;;;4.83;;
8104;SDS011;4095;48.942;9.104;2022-08-03T04:56:12;6.00;;;4.40;;
8104;SDS011;4095;48.942;9.104;2022-08-03T04:58:37;8.17;;;5.17;;
8104;SDS011;4095;48.942;9.104;2022-08-03T05:01:03;5.53;;;4.23;;
8104;SDS011;4095;48.942;9.104;2022-08-03T05:03:29;6.03;;;4.87;;
8104;SDS011;4095;48.942;9.104;2022-08-03T05:05:55;6.20;;;4.63;;
8104;SDS011;4095;48.942;9.104;2022-08-03T05:08:21;5.57;;;4.53;;
8104;SDS011;4095;48.942;9.104;2022-08-03T05:10:47;5.03;;;4.57;;
8104;SDS011;4095;48.942;9.104;2022-08-03T05:13:12;5.03;;;4.40;;
8104;SDS011;4095;48.942;9.104;2022-08-03T05:15:38;5.40;;;4.90;;
8104;SDS011;4095;48.942;9.104;2022-08-03T05:18:04;6.17;;;5.17;;
8104;SDS011;4095;48.942;9.104;2022-08-03T05:20:30;5.50;;;4.73;;
8104;SDS011;4095;48.942;9.104;2022-08-03T05:22:56;7.00;;;5.17;;
8104;SDS011;4095;48.942;9.104;2022-08-03T05:25:22;7.00;;;5.27;;
8104;SDS011;4095;48.942;9.104;2022-08-03T05:27:48;7.17;;;5.20;;
8104;SDS011;4095;48.942;9.104;2022-08-03T05:30:14;6.13;;;5.50;;
8104;SDS011;4095;48.942;9.104;2022-08-03T05:32:40;5.63;;;5.03;;
8104;SDS011;4095;48.942;9.104;2022-08-03T05:35:06;7.17;;;5.37;;
8104;SDS011;4095;48.942;9.104;2022-08-03T05:37:31;5.97;;;5.37;;
8104;SDS011;4095;48.942;9.104;2022-08-03T05:39:57;5.30;;;4.80;;
8104;SDS011;4095;48.942;9.104;2022-08-03T05:42:23;5.07;;;4.40;;
8104;SDS011;4095;48.942;9.104;2022-08-03T05:44:48;5.50;;;4.93;;
8104;SDS011;4095;48.942;9.104;2022-08-03T05:47:14;5.73;;;4.90;;
8104;SDS011;4095;48.942;9.104;2022-08-03T05:49:40;6.40;;;5.80;;
8104;SDS011;4095;48.942;9.104;2022-08-03T05:52:06;6.10;;;5.50;;
8104;SDS011;4095;48.942;9.104;2022-08-03T05:54:31;5.93;;;5.23;;
8104;SDS011;4095;48.942;9.104;2022-08-03T05:56:57;5.77;;;4.90;;
8104;SDS011;4095;48.942;9.104;2022-08-03T05:59:22;7.47;;;5.20;;
8104;SDS011;4095;48.942;9.104;2022-08-03T06:01:49;5.33;;;4.83;;
8104;SDS011;4095;48.942;9.104;2022-08-03T06:04:15;7.13;;;5.03;;
8104;SDS011;4095;48.942;9.104;2022-08-03T06:06:41;7.77;;;5.33;;
8104;SDS011;4095;48.942;9.104;2022-08-03T06:09:07;6.33;;;5.17;;
8104;SDS011;4095;48.942;9.104;2022-08-03T06:11:34;7.07;;;5.07;;
8104;SDS011;4095;48.942;9.104;2022-08-03T06:14:00;7.57;;;5.10;;
8104;SDS011;4095;48.942;9.104;2022-08-03T06:16:25;5.93;;;5.33;;
8104;SDS011;4095;48.942;9.104;2022-08-03T06:18:51;8.60;;;7.17;;
8104;SDS011;4095;48.942;9.104;2022-08-03T06:21:17;8.00;;;6.77;;
8104;SDS011;4095;48.942;9.104;2022-08-03T06:23:43;13.13;;;8.53;;
8104;SDS011;4095;48.942;9.104;2022-08-03T06:26:09;11.27;;;8.00;;
8104;SDS011;4095;48.942;9.104;2022-08-03T06:28:35;9.73;;;7.70;;
8104;SDS011;4095;48.942;9.104;2022-08-03T06:31:01;9.43;;;7.40;;
8104;SDS011;4095;48.942;9.104;2022-08-03T06:33:27;8.43;;;6.27;;
8104;SDS011;4095;48.942;9.104;2022-08-03T06:35:53;6.83;;;5.93;;
8104;SDS011;4095;48.942;9.104;2022-08-03T06:38:19;7.67;;;5.47;;
8104;SDS011;4095;48.942;9.104;2022-08-03T06:40:44;6.03;;;5.22;;
8104;SDS011;4095;48.942;9.104;2022-08-03T06:43:10;7.50;;;4.70;;
8104;SDS011;4095;48.942;9.104;2022-08-03T06:45:37;8.10;;;5.05;;
8104;SDS011;4095;48.942;9.104;2022-08-03T06:50:30;5.20;;;4.10;;
8104;SDS011;4095;48.942;9.104;2022-08-03T06:52:56;8.15;;;4.70;;
8104;SDS011;4095;48.942;9.104;2022-08-03T06:55:22;6.28;;;4.47;;
8104;SDS011;4095;48.942;9.104;2022-08-03T06:57:48;8.00;;;4.50;;
8104;SDS011;4095;48.942;9.104;2022-08-03T07:00:13;6.65;;;4.60;;
8104;SDS011;4095;48.942;9.104;2022-08-03T07:02:39;10.25;;;5.13;;
8104;SDS011;4095;48.942;9.104;2022-08-03T07:05:06;8.40;;;4.80;;
8104;SDS011;4095;48.942;9.104;2022-08-03T07:07:32;6.15;;;4.70;;
8104;SDS011;4095;48.942;9.104;2022-08-03T07:09:58;5.72;;;4.25;;
8104;SDS011;4095;48.942;9.104;2022-08-03T07:12:24;7.30;;;4.30;;
8104;SDS011;4095;48.942;9.104;2022-08-03T07:14:51;5.35;;;4.30;;
8104;SDS011;4095;48.942;9.104;2022-08-03T07:17:17;5.07;;;4.15;;
8104;SDS011;4095;48.942;9.104;2022-08-03T07:19:42;5.03;;;4.40;;
8104;SDS011;4095;48.942;9.104;2022-08-03T07:22:08;6.15;;;4.75;;
8104;SDS011;4095;48.942;9.104;2022-08-03T07:24:35;10.57;;;4.22;;
8104;SDS011;4095;48.942;9.104;2022-08-03T07:27:01;6.95;;;3.60;;
8104;SDS011;4095;48.942;9.104;2022-08-03T07:29:26;5.65;;;3.42;;
8104;SDS011;4095;48.942;9.104;2022-08-03T07:31:52;5.57;;;3.40;;
8104;SDS011;4095;48.942;9.104;2022-08-03T07:34:18;8.13;;;4.05;;
8104;SDS011;4095;48.942;9.104;2022-08-03T07:36:43;3.67;;;3.28;;
8104;SDS011;4095;48.942;9.104;2022-08-03T07:39:09;4.60;;;3.55;;
8104;SDS011;4095;48.942;9.104;2022-08-03T07:41:35;4.80;;;3.45;;
8104;SDS011;4095;48.942;9.104;2022-08-03T07:44:01;6.18;;;3.65;;
8104;SDS011;4095;48.942;9.104;2022-08-03T07:46:27;6.30;;;3.53;;
8104;SDS011;4095;48.942;9.104;2022-08-03T07:48:52;4.57;;;3.63;;
8104;SDS011;4095;48.942;9.104;2022-08-03T07:51:18;3.90;;;3.47;;
8104;SDS011;4095;48.942;9.104;2022-08-03T07:53:43;8.27;;;4.00;;
8104;SDS011;4095;48.942;9.104;2022-08-03T07:56:09;3.67;;;3.20;;
8104;SDS011;4095;48.942;9.104;2022-08-03T07:58:35;5.72;;;3.50;;
8104;SDS011;4095;48.942;9.104;2022-08-03T08:01:01;4.38;;;2.53;;
8104;SDS011;4095;48.942;9.104;2022-08-03T08:03:26;2.92;;;2.63;;
8104;SDS011;4095;48.942;9.104;2022-08-03T08:05:52;4.20;;;2.65;;
8104;SDS011;4095;48.942;9.104;2022-08-03T08:08:18;2.45;;;2.20;;
8104;SDS011;4095;48.942;9.104;2022-08-03T08:10:44;4.13;;;2.28;;
8104;SDS011;4095;48.942;9.104;2022-08-03T08:13:11;3.63;;;2.50;;
8104;SDS011;4095;48.942;9.104;2022-08-03T08:15:36;3.28;;;2.40;;
8104;SDS011;4095;48.942;9.104;2022-08-03T08:18:02;2.88;;;2.20;;
8104;SDS011;4095;48.942;9.104;2022-08-03T08:20:30;3.25;;;2.35;;
8104;SDS011;4095;48.942;9.104;2022-08-03T08:22:59;4.20;;;2.13;;
8104;SDS011;4095;48.942;9.104;2022-08-03T08:25:26;4.55;;;2.20;;
8104;SDS011;4095;48.942;9.104;2022-08-03T08:27:51;3.85;;;2.00;;
8104;SDS011;4095;48.942;9.104;2022-08-03T08:30:18;3.22;;;2.10;;
8104;SDS011;4095;48.942;9.104;2022-08-03T08:32:45;3.03;;;2.13;;
8104;SDS011;4095;48.942;9.104;2022-08-03T08:35:11;2.95;;;2.13;;
8104;SDS011;4095;48.942;9.104;2022-08-03T08:37:37;2.40;;;1.77;;
8104;SDS011;4095;48.942;9.104;2022-08-03T08:40:04;3.85;;;1.77;;
8104;SDS011;4095;48.942;9.104;2022-08-03T08:42:31;3.28;;;1.70;;
8104;SDS011;4095;48.942;9.104;2022-08-03T08:44:57;7.65;;;2.10;;
8104;SDS011;4095;48.942;9.104;2022-08-03T08:47:24;1.60;;;1.50;;
8104;SDS011;4095;48.942;9.104;2022-08-03T08:49:53;3.55;;;1.60;;
8104;SDS011;4095;48.942;9.104;2022-08-03T08:52:28;4.00;;;1.73;;
8104;SDS011;4095;48.942;9.104;2022-08-03T08:54:58;2.42;;;1.60;;
8104;SDS011;4095;48.942;9.104;2022-08-03T08:57:26;2.75;;;1.80;;
8104;SDS011;4095;48.942;9.104;2022-08-03T09:00:07;1.80;;;1.55;;
8104;SDS011;4095;48.942;9.104;2022-08-03T09:02:37;7.30;;;1.90;;
8104;SDS011;4095;48.942;9.104;2022-08-03T09:05:06;3.92;;;1.70;;
8104;SDS011;4095;48.942;9.104;2022-08-03T09:07:38;7.93;;;2.05;;
8104;SDS011;4095;48.942;9.104;2022-08-03T09:10:05;5.47;;;1.70;;
8104;SDS011;4095;48.942;9.104;2022-08-03T09:12:36;2.63;;;1.27;;
8104;SDS011;4095;48.942;9.104;2022-08-03T09:15:22;3.58;;;1.20;;
8104;SDS011;4095;48.942;9.104;2022-08-03T09:17:50;1.48;;;1.35;;
8104;SDS011;4095;48.942;9.104;2022-08-03T09:20:17;1.40;;;1.30;;
8104;SDS011;4095;48.942;9.104;2022-08-03T09:25:19;3.42;;;1.33;;
8104;SDS011;4095;48.942;9.104;2022-08-03T09:27:51;4.90;;;1.52;;
8104;SDS011;4095;48.942;9.104;2022-08-03T09:30:18;1.60;;;1.40;;
8104;SDS011;4095;48.942;9.104;2022-08-03T09:32:44;1.50;;;0.93;;
8104;SDS011;4095;48.942;9.104;2022-08-03T09:35:12;1.42;;;1.23;;
8104;SDS011;4095;48.942;9.104;2022-08-03T09:37:38;1.38;;;1.25;;
8104;SDS011;4095;48.942;9.104;2022-08-03T09:40:04;1.77;;;1.55;;
8104;SDS011;4095;48.942;9.104;2022-08-03T09:42:31;1.30;;;1.17;;
8104;SDS011;4095;48.942;9.104;2022-08-03T09:45:02;1.42;;;1.30;;
8104;SDS011;4095;48.942;9.104;2022-08-03T09:47:29;1.23;;;1.13;;
8104;SDS011;4095;48.942;9.104;2022-08-03T09:50:05;1.65;;;1.30;;
8104;SDS011;4095;48.942;9.104;2022-08-03T09:52:33;1.23;;;1.13;;
8104;SDS011;4095;48.942;9.104;2022-08-03T09:55:02;1.20;;;1.10;;
8104;SDS011;4095;48.942;9.104;2022-08-03T09:57:33;1.25;;;1.15;;
8104;SDS011;4095;48.942;9.104;2022-08-03T10:00:32;1.20;;;1.10;;
8104;SDS011;4095;48.942;9.104;2022-08-03T10:02:51;1.45;;;1.17;;
8104;SDS011;4095;48.942;9.104;2022-08-03T10:05:30;1.63;;;1.30;;
8104;SDS011;4095;48.942;9.104;2022-08-03T10:07:56;1.75;;;1.05;;
8104;SDS011;4095;48.942;9.104;2022-08-03T10:10:22;1.25;;;1.00;;
8104;SDS011;4095;48.942;9.104;2022-08-03T10:12:48;1.23;;;1.10;;
8104;SDS011;4095;48.942;9.104;2022-08-03T10:15:15;2.05;;;1.30;;
8104;SDS011;4095;48.942;9.104;2022-08-03T10:17:41;2.78;;;1.17;;
8104;SDS011;4095;48.942;9.104;2022-08-03T10:20:07;2.28;;;0.90;;
8104;SDS011;4095;48.942;9.104;2022-08-03T10:22:34;2.17;;;1.35;;
8104;SDS011;4095;48.942;9.104;2022-08-03T10:25:07;1.08;;;1.00;;
8104;SDS011;4095;48.942;9.104;2022-08-03T10:27:36;2.28;;;1.20;;
8104;SDS011;4095;48.942;9.104;2022-08-03T10:30:06;1.25;;;1.15;;
8104;SDS011;4095;48.942;9.104;2022-08-03T10:32:37;2.65;;;1.48;;
8104;SDS011;4095;48.942;9.104;2022-08-03T10:35:07;2.28;;;1.50;;
8104;SDS011;4095;48.942;9.104;2022-08-03T10:37:40;1.55;;;1.23;;
8104;SDS011;4095;48.942;9.104;2022-08-03T10:40:12;1.58;;;1.25;;
8104;SDS011;4095;48.942;9.104;2022-08-03T10:42:40;1.27;;;1.20;;
8104;SDS011;4095;48.942;9.104;2022-08-03T10:45:17;1.67;;;1.42;;
8104;SDS011;4095;48.942;9.104;2022-08-03T10:47:48;1.40;;;1.30;;
8104;SDS011;4095;48.942;9.104;2022-08-03T10:50:16;4.15;;;1.45;;
8104;SDS011;4095;48.942;9.104;2022-08-03T10:52:58;1.90;;;1.35;;
8104;SDS011;4095;48.942;9.104;2022-08-03T11:01:03;1.40;;;1.30;;
8104;SDS011;4095;48.942;9.104;2022-08-03T11:03:29;1.85;;;1.50;;
8104;SDS011;4095;48.942;9.104;2022-08-03T11:06:16;1.40;;;1.30;;
8104;SDS011;4095;48.942;9.104;2022-08-03T11:08:44;3.30;;;1.50;;
8104;SDS011;4095;48.942;9.104;2022-08-03T11:16:29;1.52;;;1.40;;
8104;SDS011;4095;48.942;9.104;2022-08-03T11:19:00;3.30;;;1.35;;
8104;SDS011;4095;48.942;9.104;2022-08-03T11:35:12;1.50;;;1.23;;
8104;SDS011;4095;48.942;9.104;2022-08-03T11:43:05;1.67;;;1.50;;
8104;SDS011;4095;48.942;9.104;2022-08-03T11:46:03;1.80;;;1.40;;
8104;SDS011;4095;48.942;9.104;2022-08-03T11:48:38;1.88;;;1.45;;
8104;SDS011;4095;48.942;9.104;2022-08-03T11:51:07;1.85;;;1.50;;
8104;SDS011;4095;48.942;9.104;2022-08-03T11:53:56;1.45;;;1.30;;
8104;SDS011;4095;48.942;9.104;2022-08-03T11:56:23;1.63;;;1.45;;
8104;SDS011;4095;48.942;9.104;2022-08-03T11:58:50;1.60;;;1.50;;
8104;SDS011;4095;48.942;9.104;2022-08-03T12:01:18;1.40;;;1.30;;
8104;SDS011;4095;48.942;9.104;2022-08-03T12:03:44;1.48;;;1.30;;
8104;SDS011;4095;48.942;9.104;2022-08-03T12:06:11;1.55;;;1.45;;
8104;SDS011;4095;48.942;9.104;2022-08-03T12:08:39;1.63;;;1.52;;
8104;SDS011;4095;48.942;9.104;2022-08-03T12:11:06;2.08;;;1.42;;
8104;SDS011;4095;48.942;9.104;2022-08-03T12:16:15;1.52;;;1.42;;
8104;SDS011;4095;48.942;9.104;2022-08-03T12:19:00;1.85;;;1.67;;
8104;SDS011;4095;48.942;9.104;2022-08-03T12:21:27;1.38;;;1.27;;
8104;SDS011;4095;48.942;9.104;2022-08-03T12:23:57;1.73;;;1.42;;
8104;SDS011;4095;48.942;9.104;2022-08-03T12:26:24;2.83;;;1.65;;
8104;SDS011;4095;48.942;9.104;2022-08-03T12:28:50;2.92;;;1.38;;
8104;SDS011;4095;48.942;9.104;2022-08-03T12:31:16;1.45;;;1.35;;
8104;SDS011;4095;48.942;9.104;2022-08-03T12:33:55;1.98;;;1.40;;
8104;SDS011;4095;48.942;9.104;2022-08-03T12:36:29;2.83;;;1.40;;
8104;SDS011;4095;48.942;9.104;2022-08-03T12:38:58;1.95;;;1.33;;
8104;SDS011;4095;48.942;9.104;2022-08-03T12:41:26;2.00;;;1.42;;
8104;SDS011;4095;48.942;9.104;2022-08-03T12:43:53;3.17;;;1.50;;
8104;SDS011;4095;48.942;9.104;2022-08-03T12:46:19;1.77;;;1.40;;
8104;SDS011;4095;48.942;9.104;2022-08-03T12:48:56;3.08;;;1.40;;
8104;SDS011;4095;48.942;9.104;2022-08-03T12:51:27;2.33;;;1.50;;
8104;SDS011;4095;48.942;9.104;2022-08-03T12:53:54;1.33;;;1.25;;
8104;SDS011;4095;48.942;9.104;2022-08-03T12:56:21;1.58;;;1.38;;
8104;SDS011;4095;48.942;9.104;2022-08-03T12:58:47;1.60;;;1.50;;
8104;SDS011;4095;48.942;9.104;2022-08-03T13:01:15;3.42;;;1.40;;
8104;SDS011;4095;48.942;9.104;2022-08-03T13:03:45;2.05;;;1.30;;
8104;SDS011;4095;48.942;9.104;2022-08-03T13:06:19;1.52;;;1.40;;
8104;SDS011;4095;48.942;9.104;2022-08-03T13:08:49;2.03;;;1.40;;
8104;SDS011;4095;48.942;9.104;2022-08-03T13:11:26;1.88;;;1.48;;
8104;SDS011;4095;48.942;9.104;2022-08-03T13:13:53;2.80;;;1.65;;
8104;SDS011;4095;48.942;9.104;2022-08-03T13:16:22;2.28;;;1.58;;
8104;SDS011;4095;48.942;9.104;2022-08-03T13:18:48;1.45;;;1.20;;
8104;SDS011;4095;48.942;9.104;2022-08-03T13:21:17;2.53;;;1.60;;
8104;SDS011;4095;48.942;9.104;2022-08-03T13:23:43;1.95;;;1.55;;
8104;SDS011;4095;48.942;9.104;2022-08-03T13:26:10;1.30;;;1.20;;
8104;SDS011;4095;48.942;9.104;2022-08-03T13:28:36;2.53;;;1.50;;
8104;SDS011;4095;48.942;9.104;2022-08-03T13:31:03;1.52;;;1.33;;
8104;SDS011;4095;48.942;9.104;2022-08-03T13:33:28;1.45;;;1.30;;
8104;SDS011;4095;48.942;9.104;2022-08-03T13:35:54;1.60;;;1.40;;
8104;SDS011;4095;48.942;9.104;2022-08-03T13:38:20;2.78;;;1.38;;
8104;SDS011;4095;48.942;9.104;2022-08-03T13:40:45;4.18;;;1.48;;
8104;SDS011;4095;48.942;9.104;2022-08-03T13:43:11;1.48;;;1.38;;
8104;SDS011;4095;48.942;9.104;2022-08-03T13:45:37;1.38;;;1.27;;
8104;SDS011;4095;48.942;9.104;2022-08-03T13:48:03;1.83;;;1.35;;
8104;SDS011;4095;48.942;9.104;2022-08-03T13:50:28;1.35;;;1.25;;
8104;SDS011;4095;48.942;9.104;2022-08-03T13:52:55;2.10;;;1.30;;
8104;SDS011;4095;48.942;9.104;2022-08-03T13:55:21;1.60;;;1.38;;
8104;SDS011;4095;48.942;9.104;2022-08-03T13:57:47;2.05;;;1.48;;
8104;SDS011;4095;48.942;9.104;2022-08-03T14:00:13;1.77;;;1.33;;
8104;SDS011;4095;48.942;9.104;2022-08-03T14:02:40;2.10;;;1.30;;
8104;SDS011;4095;48.942;9.104;2022-08-03T14:05:06;1.70;;;1.60;;
8104;SDS011;4095;48.942;9.104;2022-08-03T14:07:32;2.20;;;1.50;;
8104;SDS011;4095;48.942;9.104;2022-08-03T14:09:57;2.08;;;1.42;;
8104;SDS011;4095;48.942;9.104;2022-08-03T14:12:23;1.60;;;1.45;;
8104;SDS011;4095;48.942;9.104;2022-08-03T14:14:49;1.40;;;1.30;;
8104;SDS011;4095;48.942;9.104;2022-08-03T14:17:14;1.98;;;1.40;;
8104;SDS011;4095;48.942;9.104;2022-08-03T14:19:40;1.40;;;1.30;;
8104;SDS011;4095;48.942;9.104;2022-08-03T14:22:05;1.75;;;1.52;;
8104;SDS011;4095;48.942;9.104;2022-08-03T14:24:31;1.50;;;1.40;;
8104;SDS011;4095;48.942;9.104;2022-08-03T14:26:57;2.95;;;1.40;;
8104;SDS011;4095;48.942;9.104;2022-08-03T14:29:22;2.55;;;1.35;;
8104;SDS011;4095;48.942;9.104;2022-08-03T14:31:48;1.40;;;1.30;;
8104;SDS011;4095;48.942;9.104;2022-08-03T14:34:13;2.13;;;1.45;;
8104;SDS011;4095;48.942;9.104;2022-08-03T14:36:39;2.03;;;1.58;;
8104;SDS011;4095;48.942;9.104;2022-08-03T14:39:06;1.67;;;1.42;;
8104;SDS011;4095;48.942;9.104;2022-08-03T14:41:31;1.30;;;1.20;;
8104;SDS011;4095;48.942;9.104;2022-08-03T14:43:57;1.50;;;1.40;;
8104;SDS011;4095;48.942;9.104;2022-08-03T14:46:23;1.50;;;1.40;;
8104;SDS011;4095;48.942;9.104;2022-08-03T14:48:48;1.65;;;1.35;;
8104;SDS011;4095;48.942;9.104;2022-08-03T14:51:14;1.60;;;1.50;;
8104;SDS011;4095;48.942;9.104;2022-08-03T14:53:40;1.40;;;1.30;;
8104;SDS011;4095;48.942;9.104;2022-08-03T14:56:05;2.20;;;1.70;;
8104;SDS011;4095;48.942;9.104;2022-08-03T14:58:31;1.52;;;1.42;;
8104;SDS011;4095;48.942;9.104;2022-08-03T15:00:57;2.45;;;1.50;;
8104;SDS011;4095;48.942;9.104;2022-08-03T15:03:23;2.85;;;1.80;;
8104;SDS011;4095;48.942;9.104;2022-08-03T15:05:53;1.70;;;1.42;;
8104;SDS011;4095;48.942;9.104;2022-08-03T15:08:19;1.58;;;1.48;;
8104;SDS011;4095;48.942;9.104;2022-08-03T15:10:46;2.67;;;1.50;;
8104;SDS011;4095;48.942;9.104;2022-08-03T15:13:13;1.60;;;1.50;;
8104;SDS011;4095;48.942;9.104;2022-08-03T15:15:38;2.20;;;1.35;;
8104;SDS011;4095;48.942;9.104;2022-08-03T15:18:04;1.83;;;1.50;;
8104;SDS011;4095;48.942;9.104;2022-08-03T15:20:30;3.10;;;1.75;;
8104;SDS011;4095;48.942;9.104;2022-08-03T15:22:56;2.05;;;1.50;;
8104;SDS011;4095;48.942;9.104;2022-08-03T15:25:21;1.20;;;1.10;;
8104;SDS011;4095;48.942;9.104;2022-08-03T15:27:47;1.40;;;1.30;;
8104;SDS011;4095;48.942;9.104;2022-08-03T15:30:13;1.50;;;1.40;;
8104;SDS011;4095;48.942;9.104;2022-08-03T15:32:38;3.00;;;1.63;;
8104;SDS011;4095;48.942;9.104;2022-08-03T15:35:04;3.13;;;1.33;;
8104;SDS011;4095;48.942;9.104;2022-08-03T15:37:30;1.75;;;1.40;;
8104;SDS011;4095;48.942;9.104;2022-08-03T15:39:55;1.38;;;1.27;;
8104;SDS011;4095;48.942;9.104;2022-08-03T15:42:21;1.40;;;1.30;;
8104;SDS011;4095;48.942;9.104;2022-08-03T15:44:47;1.85;;;1.58;;
8104;SDS011;4095;48.942;9.104;2022-08-03T15:47:12;2.35;;;1.58;;
8104;SDS011;4095;48.942;9.104;2022-08-03T15:49:38;1.75;;;1.45;;
8104;SDS011;4095;48.942;9.104;2022-08-03T15:52:03;2.03;;;1.42;;
8104;SDS011;4095;48.942;9.104;2022-08-03T15:54:29;1.73;;;1.63;;
8104;SDS011;4095;48.942;9.104;2022-08-03T15:56:55;1.70;;;1.30;;
8104;SDS011;4095;48.942;9.104;2022-08-03T15:59:20;2.13;;;1.50;;
8104;SDS011;4095;48.942;9.104;2022-08-03T16:01:46;2.72;;;1.52;;
8104;SDS011;4095;48.942;9.104;2022-08-03T16:04:12;3.25;;;1.45;;
8104;SDS011;4095;48.942;9.104;2022-08-03T16:06:38;1.67;;;1.58;;
8104;SDS011;4095;48.942;9.104;2022-08-03T16:09:04;1.40;;;1.30;;
8104;SDS011;4095;48.942;9.104;2022-08-03T16:11:31;2.17;;;1.50;;
8104;SDS011;4095;48.942;9.104;2022-08-03T16:13:57;1.80;;;1.48;;